createdAt,value
2022-08-12T00:00:55.142Z,21.48
2022-08-12T00:03:40.696Z,21.42
2022-08-12T00:06:26.917Z,21.39
2022-08-12T00:09:14.005Z,21.12
2022-08-12T00:11:59.996Z,21.26
2022-08-12T00:14:45.201Z,21.34
2022-08-12T00:17:31.569Z,21.32
2022-08-12T00:20:16.779Z,21.03
2022-08-12T00:23:02.804Z,21.08
2022-08-12T00:26:21.126Z,21.00
2022-08-12T00:29:02.349Z,21.05
2022-08-12T00:31:48.107Z,21.12
2022-08-12T00:34:33.300Z,21.01
2022-08-12T00:37:19.016Z,21.04
2022-08-12T00:40:11.027Z,21.18
2022-08-12T00:42:41.688Z,21.42
2022-08-12T00:45:10.908Z,21.43
2022-08-12T00:47:39.423Z,21.24
2022-08-12T00:50:09.229Z,21.20
2022-08-12T00:52:37.225Z,21.14
2022-08-12T00:55:06.553Z,21.04
2022-08-12T00:57:36.442Z,21.00
2022-08-12T01:00:09.827Z,21.13
2022-08-12T01:02:40.451Z,21.07
2022-08-12T01:05:29.581Z,21.05
2022-08-12T01:08:15.465Z,20.98
2022-08-12T01:11:02.667Z,20.91
2022-08-12T01:13:32.151Z,21.01
2022-08-12T01:16:03.004Z,21.05
2022-08-12T01:18:33.273Z,21.20
2022-08-12T01:21:11.786Z,20.90
2022-08-12T01:23:50.334Z,20.94
2022-08-12T01:26:21.075Z,21.04
2022-08-12T01:28:51.589Z,20.92
2022-08-12T01:31:21.510Z,20.80
2022-08-12T01:33:59.740Z,20.73
2022-08-12T01:36:28.903Z,20.74
2022-08-12T01:38:59.459Z,20.77
2022-08-12T01:41:30.876Z,20.69
2022-08-12T01:44:02.206Z,20.80
2022-08-12T01:46:40.513Z,20.92
2022-08-12T01:49:21.884Z,20.96
2022-08-12T01:52:15.637Z,20.93
2022-08-12T01:54:47.037Z,20.80
2022-08-12T01:57:57.796Z,20.72
2022-08-12T02:00:13.745Z,20.50
2022-08-12T02:02:46.672Z,20.44
2022-08-12T02:05:36.224Z,20.32
2022-08-12T02:08:36.785Z,20.24
2022-08-12T02:11:17.252Z,20.04
2022-08-12T02:14:07.467Z,20.05
2022-08-12T02:16:50.601Z,20.07
2022-08-12T02:19:27.755Z,20.21
2022-08-12T02:22:02.790Z,20.15
2022-08-12T02:24:34.278Z,19.95
2022-08-12T02:27:02.506Z,19.88
2022-08-12T02:29:32.033Z,20.11
2022-08-12T02:32:00.254Z,20.16
2022-08-12T02:34:28.523Z,20.14
2022-08-12T02:36:57.465Z,19.99
2022-08-12T02:39:31.413Z,20.11
2022-08-12T02:42:01.848Z,20.24
2022-08-12T02:44:37.309Z,20.29
2022-08-12T02:47:07.098Z,20.03
2022-08-12T02:49:55.230Z,19.84
2022-08-12T02:52:23.868Z,19.58
2022-08-12T02:54:56.200Z,19.53
2022-08-12T02:57:25.570Z,19.88
2022-08-12T02:59:55.358Z,19.63
2022-08-12T03:02:23.828Z,19.57
2022-08-12T03:04:56.421Z,19.88
2022-08-12T03:07:49.271Z,19.88
2022-08-12T03:10:36.817Z,19.65
2022-08-12T03:13:06.952Z,19.43
2022-08-12T03:15:36.610Z,19.32
2022-08-12T03:18:26.016Z,19.36
2022-08-12T03:20:56.975Z,19.77
2022-08-12T03:23:29.037Z,19.89
2022-08-12T03:26:00.664Z,19.74
2022-08-12T03:28:46.943Z,19.84
2022-08-12T03:31:16.737Z,19.53
2022-08-12T03:34:00.915Z,19.61
2022-08-12T03:36:33.520Z,19.65
2022-08-12T03:42:02.247Z,19.43
2022-08-12T03:44:50.751Z,19.30
2022-08-12T03:47:39.717Z,19.51
2022-08-12T03:50:25.919Z,19.66
2022-08-12T03:53:11.385Z,19.55
2022-08-12T03:55:57.155Z,19.51
2022-08-12T03:58:44.378Z,19.22
2022-08-12T04:01:13.034Z,19.09
2022-08-12T04:03:53.491Z,19.33
2022-08-12T04:06:34.878Z,19.13
2022-08-12T04:09:16.079Z,19.10
2022-08-12T04:12:03.239Z,19.15
2022-08-12T04:14:33.924Z,19.14
2022-08-12T04:17:02.501Z,19.12
2022-08-12T04:19:30.941Z,19.17
2022-08-12T04:22:01.638Z,19.41
2022-08-12T04:24:31.393Z,19.28
2022-08-12T04:26:59.209Z,19.17
2022-08-12T04:30:29.704Z,19.23
2022-08-12T04:32:16.896Z,19.36
2022-08-12T04:34:45.008Z,19.59
2022-08-12T04:37:13.528Z,19.56
2022-08-12T04:39:42.128Z,19.47
2022-08-12T04:42:09.990Z,19.61
2022-08-12T04:44:37.873Z,19.54
2022-08-12T04:47:06.031Z,19.49
2022-08-12T04:49:36.147Z,19.75
2022-08-12T04:52:04.826Z,19.87
2022-08-12T04:54:34.423Z,19.81
2022-08-12T04:57:04.888Z,19.77
2022-08-12T04:59:47.531Z,19.86
2022-08-12T05:02:20.590Z,20.15
2022-08-12T05:04:52.726Z,20.18
2022-08-12T05:07:21.163Z,20.40
2022-08-12T05:09:58.895Z,20.51
2022-08-12T05:12:36.590Z,20.80
2022-08-12T05:15:16.765Z,20.98
2022-08-12T05:17:55.295Z,21.19
2022-08-12T05:20:26.155Z,21.11
2022-08-12T05:23:12.514Z,21.26
2022-08-12T05:25:40.858Z,21.34
2022-08-12T05:28:08.658Z,21.19
2022-08-12T05:30:37.228Z,21.43
2022-08-12T05:33:05.696Z,21.60
2022-08-12T05:35:39.992Z,21.69
2022-08-12T05:38:25.766Z,21.71
2022-08-12T05:40:53.679Z,21.89
2022-08-12T05:43:22.025Z,22.04
2022-08-12T05:45:50.382Z,22.20
2022-08-12T05:48:18.542Z,22.42
2022-08-12T05:50:48.727Z,22.45
2022-08-12T05:53:16.748Z,22.28
2022-08-12T05:55:44.581Z,22.41
2022-08-12T05:58:12.450Z,22.51
2022-08-12T06:00:42.391Z,22.87
2022-08-12T06:03:11.022Z,22.99
2022-08-12T06:05:51.798Z,23.20
2022-08-12T06:08:26.783Z,23.36
2022-08-12T06:10:57.094Z,23.40
2022-08-12T06:13:28.605Z,23.63
2022-08-12T06:16:14.841Z,23.86
2022-08-12T06:18:43.312Z,23.84
2022-08-12T06:21:12.553Z,23.85
2022-08-12T06:23:42.807Z,23.99
2022-08-12T06:26:12.855Z,24.03
2022-08-12T06:28:41.327Z,24.27
2022-08-12T06:31:25.710Z,24.52
2022-08-12T06:35:24.246Z,24.67
2022-08-12T06:36:43.188Z,24.61
2022-08-12T06:39:14.335Z,24.70
2022-08-12T06:42:10.671Z,24.90
2022-08-12T06:44:48.546Z,25.04
2022-08-12T06:47:16.744Z,25.23
2022-08-12T06:49:44.573Z,25.48
2022-08-12T06:52:12.410Z,25.72
2022-08-12T06:54:45.920Z,25.89
2022-08-12T06:58:06.179Z,26.08
2022-08-12T07:00:01.663Z,26.30
2022-08-12T07:02:32.613Z,26.37
2022-08-12T07:05:04.346Z,26.55
2022-08-12T07:07:32.197Z,26.66
2022-08-12T07:10:07.800Z,26.81
2022-08-12T07:12:36.779Z,26.89
2022-08-12T07:15:05.367Z,26.84
2022-08-12T07:17:37.452Z,27.09
2022-08-12T07:20:09.858Z,27.31
2022-08-12T07:22:39.764Z,27.42
2022-08-12T07:25:27.292Z,27.57
2022-08-12T07:27:55.851Z,27.77
2022-08-12T07:30:24.127Z,27.86
2022-08-12T07:32:52.355Z,28.02
2022-08-12T07:35:20.737Z,28.22
2022-08-12T07:37:50.467Z,28.33
2022-08-12T07:40:21.063Z,28.19
2022-08-12T07:42:49.582Z,28.29
2022-08-12T07:45:18.012Z,28.57
2022-08-12T07:47:45.893Z,28.91
2022-08-12T07:50:21.453Z,29.27
2022-08-12T07:52:51.624Z,29.53
2022-08-12T07:55:21.069Z,29.58
2022-08-12T07:57:58.585Z,29.69
2022-08-12T08:00:27.307Z,29.93
2022-08-12T08:02:55.467Z,30.21
2022-08-12T08:05:25.638Z,30.13
2022-08-12T08:07:55.591Z,30.20
2022-08-12T08:10:26.202Z,30.47
2022-08-12T08:12:58.041Z,30.32
2022-08-12T08:15:51.242Z,30.39
2022-08-12T08:18:26.461Z,30.33
2022-08-12T08:20:56.163Z,30.31
2022-08-12T08:23:46.359Z,30.43
2022-08-12T08:26:16.464Z,30.98
2022-08-12T08:28:44.528Z,31.06
2022-08-12T08:31:14.228Z,31.17
2022-08-12T08:34:09.081Z,31.27
2022-08-12T08:36:30.395Z,31.13
2022-08-12T08:38:58.883Z,31.03
2022-08-12T08:42:16.166Z,31.64
2022-08-12T08:44:33.473Z,32.09
2022-08-12T08:47:02.342Z,32.20
2022-08-12T08:49:30.145Z,32.15
2022-08-12T08:51:57.953Z,31.69
2022-08-12T08:54:25.774Z,31.92
2022-08-12T08:56:54.963Z,31.75
2022-08-12T08:59:23.382Z,31.75
2022-08-12T09:01:51.313Z,31.80
2022-08-12T09:05:13.512Z,31.75
2022-08-12T09:10:02.345Z,32.40
2022-08-12T09:12:54.673Z,32.21
2022-08-12T09:15:35.447Z,32.06
2022-08-12T09:18:05.784Z,32.26
2022-08-12T09:20:38.585Z,32.36
2022-08-12T09:25:56.138Z,32.94
2022-08-12T09:28:31.176Z,32.74
2022-08-12T09:31:00.110Z,32.68
2022-08-12T09:34:27.306Z,32.45
2022-08-12T09:36:30.995Z,32.90
2022-08-12T09:40:03.590Z,33.19
2022-08-12T09:42:39.225Z,33.07
2022-08-12T09:45:23.353Z,33.27
2022-08-12T09:47:59.670Z,33.02
2022-08-12T09:50:28.107Z,33.45
2022-08-12T09:53:14.837Z,33.67
2022-08-12T09:56:05.640Z,33.10
2022-08-12T09:58:58.062Z,33.30
2022-08-12T10:01:26.531Z,33.22
2022-08-12T10:04:05.594Z,33.34
2022-08-12T10:06:36.392Z,33.71
2022-08-12T10:09:06.671Z,34.21
2022-08-12T10:12:12.096Z,34.19
2022-08-12T10:14:50.010Z,34.18
2022-08-12T10:17:23.455Z,33.82
2022-08-12T10:19:52.519Z,33.93
2022-08-12T10:22:39.436Z,34.21
2022-08-12T10:26:34.327Z,33.48
2022-08-12T10:28:32.808Z,33.57
2022-08-12T10:31:01.565Z,33.56
2022-08-12T10:33:54.986Z,33.72
2022-08-12T10:36:40.174Z,34.15
2022-08-12T10:40:00.274Z,34.12
2022-08-12T10:42:18.282Z,33.86
2022-08-12T10:45:00.861Z,34.16
2022-08-12T10:48:20.386Z,34.77
2022-08-12T10:50:33.557Z,34.46
2022-08-12T10:53:10.325Z,34.83
2022-08-12T10:55:51.098Z,34.69
2022-08-12T10:58:30.753Z,34.86
2022-08-12T11:01:49.331Z,35.68
2022-08-12T11:04:23.068Z,35.74
2022-08-12T11:07:05.075Z,35.35
2022-08-12T11:09:41.440Z,35.47
2022-08-12T11:12:54.845Z,35.64
2022-08-12T11:15:18.949Z,35.98
2022-08-12T11:17:54.006Z,36.23
2022-08-12T11:20:24.568Z,36.37
2022-08-12T11:22:59.624Z,37.12
2022-08-12T11:25:56.465Z,37.63
2022-08-12T11:28:16.956Z,37.43
2022-08-12T11:31:01.110Z,38.28
2022-08-12T11:34:05.579Z,38.42
2022-08-12T11:36:17.221Z,38.35
2022-08-12T11:38:50.610Z,37.71
2022-08-12T11:41:27.851Z,38.44
2022-08-12T11:43:59.091Z,38.77
2022-08-12T11:46:27.062Z,38.96
2022-08-12T11:48:54.864Z,39.58
2022-08-12T11:51:22.730Z,39.30
2022-08-12T11:53:58.404Z,39.17
2022-08-12T11:56:38.545Z,38.87
2022-08-12T12:02:04.689Z,38.18
2022-08-12T12:04:34.244Z,39.28
2022-08-12T12:07:07.658Z,38.26
2022-08-12T12:09:52.294Z,38.96
2022-08-12T12:12:21.525Z,38.73
2022-08-12T12:14:54.193Z,38.65
2022-08-12T12:17:23.108Z,39.44
2022-08-12T12:19:51.016Z,39.74
2022-08-12T12:22:23.676Z,39.41
2022-08-12T12:25:13.401Z,39.01
2022-08-12T12:28:04.727Z,39.81
2022-08-12T12:30:34.021Z,39.98
2022-08-12T12:33:01.873Z,40.55
2022-08-12T12:36:19.904Z,40.46
2022-08-12T12:38:17.767Z,41.92
2022-08-12T12:40:50.378Z,42.17
2022-08-12T12:43:28.719Z,41.56
2022-08-12T12:46:07.141Z,41.42
2022-08-12T12:48:36.800Z,40.86
2022-08-12T12:51:48.373Z,41.10
2022-08-12T12:54:09.865Z,40.89
2022-08-12T12:56:42.416Z,40.21
2022-08-12T12:59:54.662Z,40.33
2022-08-12T13:02:08.237Z,42.00
2022-08-12T13:04:37.405Z,43.00
2022-08-12T13:07:06.541Z,42.26
2022-08-12T13:09:35.838Z,41.92
2022-08-12T13:12:09.015Z,42.12
2022-08-12T13:14:39.865Z,42.03
2022-08-12T13:17:09.718Z,40.95
2022-08-12T13:19:46.881Z,42.32
2022-08-12T13:22:20.024Z,41.71
2022-08-12T13:24:55.030Z,41.66
2022-08-12T13:27:35.094Z,40.32
2022-08-12T13:30:06.564Z,41.32
2022-08-12T13:32:34.998Z,41.83
2022-08-12T13:35:04.224Z,43.00
2022-08-12T13:37:55.163Z,43.26
2022-08-12T13:40:24.877Z,41.94
2022-08-12T13:42:57.479Z,42.96
2022-08-12T13:45:25.671Z,40.83
2022-08-12T13:47:56.360Z,40.90
2022-08-12T13:50:32.453Z,41.73
2022-08-12T13:53:23.378Z,42.26
2022-08-12T13:55:59.505Z,40.92
2022-08-12T13:58:34.752Z,42.86
2022-08-12T14:01:05.402Z,42.05
2022-08-12T14:03:50.142Z,41.48
2022-08-12T14:06:19.745Z,42.64
2022-08-12T14:08:49.626Z,43.94
2022-08-12T14:11:18.227Z,42.93
2022-08-12T14:14:04.712Z,43.07
2022-08-12T14:16:48.336Z,43.26
2022-08-12T14:19:25.636Z,43.50
2022-08-12T14:22:04.980Z,42.78
2022-08-12T14:24:40.472Z,41.61
2022-08-12T14:27:10.301Z,42.62
2022-08-12T14:30:04.512Z,43.63
2022-08-12T14:32:35.678Z,43.34
2022-08-12T14:35:09.082Z,42.23
2022-08-12T14:37:54.926Z,43.37
2022-08-12T14:40:27.458Z,44.14
2022-08-12T14:42:56.950Z,43.88
2022-08-12T14:45:44.525Z,44.05
2022-08-12T14:48:15.604Z,43.46
2022-08-12T14:51:02.583Z,41.94
2022-08-12T14:59:26.401Z,42.41
2022-08-12T15:01:56.553Z,42.69
2022-08-12T15:04:29.103Z,41.76
2022-08-12T15:06:58.126Z,43.80
2022-08-12T15:09:29.034Z,43.04
2022-08-12T15:12:03.772Z,42.07
2022-08-12T15:14:32.325Z,42.72
2022-08-12T15:17:06.929Z,41.50
2022-08-12T15:20:30.767Z,41.93
2022-08-12T15:22:39.277Z,43.02
2022-08-12T15:25:11.172Z,43.38
2022-08-12T15:28:03.988Z,43.89
2022-08-12T15:30:34.417Z,44.03
2022-08-12T15:33:14.785Z,43.95
2022-08-12T15:35:50.250Z,43.74
2022-08-12T15:38:22.314Z,43.71
2022-08-12T15:40:53.503Z,44.40
2022-08-12T15:43:50.893Z,43.11
2022-08-12T15:46:15.424Z,41.81
2022-08-12T15:48:46.821Z,40.29
2022-08-12T15:51:58.506Z,40.61
2022-08-12T15:54:30.962Z,40.86
2022-08-12T15:57:05.285Z,42.10
2022-08-12T16:00:00.215Z,41.13
2022-08-12T16:02:21.278Z,42.55
2022-08-12T16:04:51.403Z,42.61
2022-08-12T16:07:36.922Z,40.36
2022-08-12T16:10:09.085Z,40.30
2022-08-12T16:12:43.539Z,39.68
2022-08-12T16:15:23.562Z,39.53
2022-08-12T16:18:20.359Z,39.43
2022-08-12T16:20:46.923Z,39.48
2022-08-12T16:23:36.562Z,39.88
2022-08-12T16:26:14.941Z,40.90
2022-08-12T16:28:47.394Z,40.61
2022-08-12T16:31:22.523Z,39.46
2022-08-12T16:33:56.771Z,38.35
2022-08-12T16:36:30.433Z,38.37
2022-08-12T16:39:01.593Z,37.82
2022-08-12T16:41:38.079Z,38.94
2022-08-12T16:44:08.285Z,37.32
2022-08-12T16:46:36.381Z,36.75
2022-08-12T16:49:09.265Z,37.36
2022-08-12T16:51:46.568Z,38.47
2022-08-12T16:54:16.912Z,39.60
2022-08-12T16:56:54.613Z,39.70
2022-08-12T16:59:31.100Z,40.96
2022-08-12T17:02:31.927Z,41.54
2022-08-12T17:05:04.916Z,41.92
2022-08-12T17:07:38.091Z,41.57
2022-08-12T17:10:12.358Z,42.28
2022-08-12T17:12:40.628Z,42.20
2022-08-12T17:15:50.663Z,41.56
2022-08-12T17:18:42.103Z,41.73
2022-08-12T17:20:49.021Z,40.99
2022-08-12T17:23:20.521Z,41.58
2022-08-12T17:25:51.232Z,42.06
2022-08-12T17:28:20.168Z,40.44
2022-08-12T17:30:59.980Z,41.60
2022-08-12T17:33:33.668Z,41.22
2022-08-12T17:36:05.441Z,40.30
2022-08-12T17:38:35.670Z,38.90
2022-08-12T17:41:21.546Z,38.73
2022-08-12T17:43:58.238Z,37.75
2022-08-12T17:46:33.042Z,36.58
2022-08-12T17:49:06.773Z,36.00
2022-08-12T17:52:02.276Z,35.30
2022-08-12T17:54:32.824Z,35.59
2022-08-12T17:57:01.364Z,35.32
2022-08-12T17:59:47.735Z,34.73
2022-08-12T18:02:25.590Z,34.65
2022-08-12T18:05:09.611Z,34.38
2022-08-12T18:07:39.288Z,33.79
2022-08-12T18:10:09.654Z,33.57
2022-08-12T18:12:42.699Z,33.08
2022-08-12T18:15:26.459Z,33.00
2022-08-12T18:18:16.775Z,32.68
2022-08-12T18:20:47.300Z,32.73
2022-08-12T18:23:24.200Z,32.70
2022-08-12T18:26:15.089Z,32.42
2022-08-12T18:28:44.475Z,32.08
2022-08-12T18:31:18.218Z,31.99
2022-08-12T18:33:47.137Z,31.69
2022-08-12T18:36:22.444Z,31.69
2022-08-12T18:38:56.247Z,31.54
2022-08-12T18:41:33.476Z,31.36
2022-08-12T18:44:05.274Z,31.19
2022-08-12T18:46:47.533Z,31.12
2022-08-12T18:49:29.764Z,31.02
2022-08-12T18:52:04.229Z,30.95
2022-08-12T18:54:36.363Z,30.73
2022-08-12T18:57:19.679Z,30.57
2022-08-12T19:00:00.937Z,30.34
2022-08-12T19:02:32.941Z,30.27
2022-08-12T19:05:10.039Z,30.15
2022-08-12T19:07:59.998Z,29.93
2022-08-12T19:10:31.166Z,29.78
2022-08-12T19:13:23.434Z,29.56
2022-08-12T19:15:54.444Z,29.41
2022-08-12T19:18:24.350Z,29.36
2022-08-12T19:20:52.210Z,29.24
2022-08-12T19:23:21.502Z,29.05
2022-08-12T19:26:01.354Z,28.72
2022-08-12T19:28:34.723Z,28.66
2022-08-12T19:31:56.414Z,28.62
2022-08-12T19:37:22.809Z,28.33
2022-08-12T19:40:09.842Z,28.29
2022-08-12T19:43:00.713Z,28.15
2022-08-12T19:45:43.406Z,28.11
2022-08-12T19:48:19.559Z,28.00
2022-08-12T19:50:50.149Z,27.83
2022-08-12T19:53:18.943Z,27.74
2022-08-12T19:55:50.761Z,27.63
2022-08-12T19:58:21.064Z,27.57
2022-08-12T20:00:53.340Z,27.51
2022-08-12T20:03:39.380Z,27.40
2022-08-12T20:06:15.962Z,27.29
2022-08-12T20:08:53.821Z,27.19
2022-08-12T20:12:13.148Z,27.14
2022-08-12T20:14:17.658Z,27.01
2022-08-12T20:16:51.747Z,26.93
2022-08-12T20:19:23.286Z,26.77
2022-08-12T20:21:51.873Z,26.66
2022-08-12T20:24:23.242Z,26.48
2022-08-12T20:26:59.574Z,26.33
2022-08-12T20:29:35.711Z,26.33
2022-08-12T20:32:09.459Z,26.28
2022-08-12T20:34:38.960Z,26.17
2022-08-12T20:37:07.021Z,25.98
2022-08-12T20:39:55.975Z,25.90
2022-08-12T20:42:26.169Z,25.79
2022-08-12T20:44:59.525Z,25.62
2022-08-12T20:47:41.954Z,25.60
2022-08-12T20:50:15.352Z,25.40
2022-08-12T20:52:45.211Z,25.18
2022-08-12T20:55:15.591Z,25.14
2022-08-12T20:58:01.892Z,24.99
2022-08-12T21:00:31.165Z,25.01
2022-08-12T21:03:20.753Z,25.08
2022-08-12T21:06:11.839Z,25.14
2022-08-12T21:08:42.670Z,25.02
2022-08-12T21:11:10.651Z,24.89
2022-08-12T21:13:42.067Z,24.94
2022-08-12T21:16:10.546Z,24.97
2022-08-12T21:18:40.997Z,24.96
2022-08-12T21:21:24.221Z,24.92
2022-08-12T21:23:58.769Z,24.96
2022-08-12T21:26:27.733Z,24.97
2022-08-12T21:29:01.757Z,24.92
2022-08-12T21:32:36.797Z,24.85
2022-08-12T21:34:26.350Z,24.87
2022-08-12T21:37:12.901Z,24.81
2022-08-12T21:39:52.451Z,24.73
2022-08-12T21:42:21.070Z,24.62
2022-08-12T21:45:47.775Z,24.63
2022-08-12T21:47:43.856Z,24.52
2022-08-12T21:50:18.176Z,24.45
2022-08-12T21:52:49.293Z,24.47
2022-08-12T21:55:20.208Z,24.19
2022-08-12T21:57:53.374Z,24.29
2022-08-12T22:00:32.097Z,24.28
2022-08-12T22:04:04.305Z,24.21
2022-08-12T22:06:26.207Z,24.18
2022-08-12T22:09:02.618Z,24.04
2022-08-12T22:11:41.796Z,24.04
2022-08-12T22:14:21.812Z,23.92
2022-08-12T22:16:54.424Z,23.93
2022-08-12T22:19:23.363Z,23.88
2022-08-12T22:21:55.629Z,23.83
2022-08-12T22:24:26.969Z,23.83
2022-08-12T22:26:58.176Z,23.93
2022-08-12T22:29:43.729Z,24.01
2022-08-12T22:32:12.252Z,23.99
2022-08-12T22:34:40.426Z,24.01
2022-08-12T22:37:19.570Z,24.06
2022-08-12T22:39:49.025Z,24.07
2022-08-12T22:42:35.237Z,24.05
2022-08-12T22:45:23.350Z,24.02
2022-08-12T22:47:55.403Z,23.98
2022-08-12T22:50:27.792Z,23.97
2022-08-12T22:53:15.094Z,23.82
2022-08-12T22:56:00.623Z,23.62
2022-08-12T22:58:33.443Z,23.70
2022-08-12T23:01:03.556Z,23.62
2022-08-12T23:03:48.891Z,23.51
2022-08-12T23:06:21.201Z,23.54
2022-08-12T23:08:50.839Z,23.50
2022-08-12T23:11:23.566Z,23.46
2022-08-12T23:13:55.153Z,23.48
2022-08-12T23:16:28.790Z,23.42
2022-08-12T23:19:01.725Z,23.28
2022-08-12T23:21:40.389Z,23.32
2022-08-12T23:24:29.569Z,23.31
2022-08-12T23:27:15.326Z,23.31
2022-08-12T23:30:17.638Z,23.40
2022-08-12T23:32:35.226Z,23.37
2022-08-12T23:35:04.134Z,23.40
2022-08-12T23:37:47.374Z,23.39
2022-08-12T23:40:22.427Z,23.40
2022-08-12T23:42:54.858Z,23.37
2022-08-12T23:45:31.208Z,23.27
2022-08-12T23:48:00.337Z,23.22
2022-08-12T23:50:33.769Z,23.30
2022-08-12T23:53:05.575Z,23.34
2022-08-12T23:55:40.596Z,23.33
2022-08-12T23:58:23.025Z,23.31
